sensor_id;sensor_type;location;lat;lon;timestamp;P1;durP1;ratioP1;P2;durP2;ratioP2
19016;SDS011;9641;51.494;6.670;2023-03-15T00:01:01;11.87;;;2.77;;
19016;SDS011;9641;51.494;6.670;2023-03-15T00:03:32;8.73;;;2.87;;
19016;SDS011;9641;51.494;6.670;2023-03-15T00:06:01;11.77;;;3.70;;
19016;SDS011;9641;51.494;6.670;2023-03-15T00:08:29;11.60;;;2.97;;
19016;SDS011;9641;51.494;6.670;2023-03-15T00:10:57;7.90;;;2.97;;
19016;SDS011;9641;51.494;6.670;2023-03-15T00:13:25;7.17;;;3.10;;
19016;SDS011;9641;51.494;6.670;2023-03-15T00:15:55;14.10;;;3.70;;
19016;SDS011;9641;51.494;6.670;2023-03-15T00:18:24;9.53;;;3.40;;
19016;SDS011;9641;51.494;6.670;2023-03-15T00:20:51;11.77;;;3.63;;
19016;SDS011;9641;51.494;6.670;2023-03-15T00:23:19;7.40;;;3.67;;
19016;SDS011;9641;51.494;6.670;2023-03-15T00:25:46;11.53;;;3.43;;
19016;SDS011;9641;51.494;6.670;2023-03-15T00:28:14;8.27;;;3.67;;
19016;SDS011;9641;51.494;6.670;2023-03-15T00:30:41;6.13;;;2.57;;
19016;SDS011;9641;51.494;6.670;2023-03-15T00:33:09;5.40;;;3.00;;
19016;SDS011;9641;51.494;6.670;2023-03-15T00:35:39;6.93;;;2.87;;
19016;SDS011;9641;51.494;6.670;2023-03-15T00:38:08;5.87;;;2.97;;
19016;SDS011;9641;51.494;6.670;2023-03-15T00:40:35;5.30;;;3.30;;
19016;SDS011;9641;51.494;6.670;2023-03-15T00:43:03;10.57;;;4.10;;
19016;SDS011;9641;51.494;6.670;2023-03-15T00:45:30;10.07;;;4.60;;
19016;SDS011;9641;51.494;6.670;2023-03-15T00:47:57;8.83;;;4.67;;
19016;SDS011;9641;51.494;6.670;2023-03-15T00:50:24;14.63;;;4.47;;
19016;SDS011;9641;51.494;6.670;2023-03-15T00:52:52;6.33;;;4.37;;
19016;SDS011;9641;51.494;6.670;2023-03-15T00:55:19;9.37;;;4.70;;
19016;SDS011;9641;51.494;6.670;2023-03-15T00:57:46;7.43;;;4.83;;
19016;SDS011;9641;51.494;6.670;2023-03-15T01:00:14;8.67;;;4.40;;
19016;SDS011;9641;51.494;6.670;2023-03-15T01:02:44;7.73;;;3.77;;
19016;SDS011;9641;51.494;6.670;2023-03-15T01:05:12;7.53;;;4.10;;
19016;SDS011;9641;51.494;6.670;2023-03-15T01:07:39;7.30;;;4.30;;
19016;SDS011;9641;51.494;6.670;2023-03-15T01:10:09;8.17;;;4.37;;
19016;SDS011;9641;51.494;6.670;2023-03-15T01:12:36;8.63;;;4.30;;
19016;SDS011;9641;51.494;6.670;2023-03-15T01:15:04;7.50;;;4.03;;
19016;SDS011;9641;51.494;6.670;2023-03-15T01:17:32;6.77;;;4.53;;
19016;SDS011;9641;51.494;6.670;2023-03-15T01:20:00;14.50;;;4.87;;
19016;SDS011;9641;51.494;6.670;2023-03-15T01:22:29;9.20;;;5.43;;
19016;SDS011;9641;51.494;6.670;2023-03-15T01:24:56;10.30;;;5.63;;
19016;SDS011;9641;51.494;6.670;2023-03-15T01:27:24;8.40;;;5.90;;
19016;SDS011;9641;51.494;6.670;2023-03-15T01:29:52;7.70;;;5.80;;
19016;SDS011;9641;51.494;6.670;2023-03-15T01:32:18;10.73;;;6.33;;
19016;SDS011;9641;51.494;6.670;2023-03-15T01:34:45;9.13;;;6.53;;
19016;SDS011;9641;51.494;6.670;2023-03-15T01:37:12;11.90;;;6.67;;
19016;SDS011;9641;51.494;6.670;2023-03-15T01:39:41;8.60;;;6.47;;
19016;SDS011;9641;51.494;6.670;2023-03-15T01:42:08;11.63;;;7.23;;
19016;SDS011;9641;51.494;6.670;2023-03-15T01:44:52;9.57;;;6.87;;
19016;SDS011;9641;51.494;6.670;2023-03-15T01:47:21;11.13;;;6.73;;
19016;SDS011;9641;51.494;6.670;2023-03-15T01:49:52;13.90;;;6.30;;
19016;SDS011;9641;51.494;6.670;2023-03-15T01:52:24;14.70;;;6.77;;
19016;SDS011;9641;51.494;6.670;2023-03-15T01:55:03;10.27;;;6.23;;
19016;SDS011;9641;51.494;6.670;2023-03-15T01:57:36;8.83;;;5.77;;
19016;SDS011;9641;51.494;6.670;2023-03-15T02:00:11;11.30;;;5.57;;
19016;SDS011;9641;51.494;6.670;2023-03-15T02:02:50;10.40;;;6.27;;
19016;SDS011;9641;51.494;6.670;2023-03-15T02:05:25;9.77;;;5.70;;
19016;SDS011;9641;51.494;6.670;2023-03-15T02:07:56;7.53;;;5.43;;
19016;SDS011;9641;51.494;6.670;2023-03-15T02:10:28;6.67;;;5.40;;
19016;SDS011;9641;51.494;6.670;2023-03-15T02:12:59;8.37;;;5.33;;
19016;SDS011;9641;51.494;6.670;2023-03-15T02:15:28;11.13;;;5.57;;
19016;SDS011;9641;51.494;6.670;2023-03-15T02:17:57;6.53;;;4.93;;
19016;SDS011;9641;51.494;6.670;2023-03-15T02:20:26;6.70;;;4.97;;
19016;SDS011;9641;51.494;6.670;2023-03-15T02:23:00;7.63;;;5.07;;
19016;SDS011;9641;51.494;6.670;2023-03-15T02:25:33;8.70;;;4.63;;
19016;SDS011;9641;51.494;6.670;2023-03-15T02:28:08;6.37;;;5.37;;
19016;SDS011;9641;51.494;6.670;2023-03-15T02:30:37;13.20;;;5.90;;
19016;SDS011;9641;51.494;6.670;2023-03-15T02:33:06;11.43;;;5.63;;
19016;SDS011;9641;51.494;6.670;2023-03-15T02:35:37;9.63;;;5.47;;
19016;SDS011;9641;51.494;6.670;2023-03-15T02:38:04;9.57;;;5.87;;
19016;SDS011;9641;51.494;6.670;2023-03-15T02:40:31;10.17;;;5.73;;
19016;SDS011;9641;51.494;6.670;2023-03-15T02:42:59;10.50;;;5.80;;
19016;SDS011;9641;51.494;6.670;2023-03-15T02:45:31;8.60;;;5.23;;
19016;SDS011;9641;51.494;6.670;2023-03-15T02:48:01;7.57;;;5.57;;
19016;SDS011;9641;51.494;6.670;2023-03-15T02:50:29;8.73;;;4.53;;
19016;SDS011;9641;51.494;6.670;2023-03-15T02:52:56;9.23;;;4.47;;
19016;SDS011;9641;51.494;6.670;2023-03-15T02:55:23;8.23;;;4.53;;
19016;SDS011;9641;51.494;6.670;2023-03-15T02:57:50;9.00;;;5.10;;
19016;SDS011;9641;51.494;6.670;2023-03-15T03:00:18;5.43;;;3.93;;
19016;SDS011;9641;51.494;6.670;2023-03-15T03:02:46;10.93;;;4.40;;
19016;SDS011;9641;51.494;6.670;2023-03-15T03:05:14;5.90;;;3.90;;
19016;SDS011;9641;51.494;6.670;2023-03-15T03:07:42;4.63;;;3.57;;
19016;SDS011;9641;51.494;6.670;2023-03-15T03:10:12;3.57;;;3.07;;
19016;SDS011;9641;51.494;6.670;2023-03-15T03:12:48;5.47;;;3.13;;
19016;SDS011;9641;51.494;6.670;2023-03-15T03:15:18;2.83;;;2.63;;
19016;SDS011;9641;51.494;6.670;2023-03-15T03:17:47;6.63;;;2.30;;
19016;SDS011;9641;51.494;6.670;2023-03-15T03:20:15;3.47;;;2.40;;
19016;SDS011;9641;51.494;6.670;2023-03-15T03:22:45;4.43;;;1.73;;
19016;SDS011;9641;51.494;6.670;2023-03-15T03:25:12;2.40;;;1.90;;
19016;SDS011;9641;51.494;6.670;2023-03-15T03:27:39;1.77;;;1.67;;
19016;SDS011;9641;51.494;6.670;2023-03-15T03:30:09;2.07;;;1.97;;
19016;SDS011;9641;51.494;6.670;2023-03-15T03:32:40;2.03;;;1.70;;
19016;SDS011;9641;51.494;6.670;2023-03-15T03:35:08;3.13;;;2.00;;
19016;SDS011;9641;51.494;6.670;2023-03-15T03:37:35;2.77;;;1.90;;
19016;SDS011;9641;51.494;6.670;2023-03-15T03:40:08;1.90;;;1.80;;
19016;SDS011;9641;51.494;6.670;2023-03-15T03:42:37;1.93;;;1.83;;
19016;SDS011;9641;51.494;6.670;2023-03-15T03:45:05;2.57;;;2.37;;
19016;SDS011;9641;51.494;6.670;2023-03-15T03:47:38;1.97;;;1.87;;
19016;SDS011;9641;51.494;6.670;2023-03-15T03:50:05;2.57;;;2.33;;
19016;SDS011;9641;51.494;6.670;2023-03-15T03:52:34;4.57;;;2.20;;
19016;SDS011;9641;51.494;6.670;2023-03-15T03:55:05;2.20;;;2.10;;
19016;SDS011;9641;51.494;6.670;2023-03-15T03:57:33;3.27;;;2.70;;
19016;SDS011;9641;51.494;6.670;2023-03-15T04:00:00;3.60;;;2.50;;
19016;SDS011;9641;51.494;6.670;2023-03-15T04:02:29;2.80;;;2.50;;
19016;SDS011;9641;51.494;6.670;2023-03-15T04:05:03;2.70;;;2.50;;
19016;SDS011;9641;51.494;6.670;2023-03-15T04:07:30;4.47;;;2.80;;
19016;SDS011;9641;51.494;6.670;2023-03-15T04:09:59;4.03;;;3.40;;
19016;SDS011;9641;51.494;6.670;2023-03-15T04:12:27;3.80;;;2.90;;
19016;SDS011;9641;51.494;6.670;2023-03-15T04:14:55;2.87;;;2.67;;
19016;SDS011;9641;51.494;6.670;2023-03-15T04:17:24;4.73;;;3.57;;
19016;SDS011;9641;51.494;6.670;2023-03-15T04:19:51;3.23;;;2.93;;
19016;SDS011;9641;51.494;6.670;2023-03-15T04:22:24;4.93;;;2.90;;
19016;SDS011;9641;51.494;6.670;2023-03-15T04:25:19;3.87;;;3.23;;
19016;SDS011;9641;51.494;6.670;2023-03-15T04:27:52;10.37;;;3.63;;
19016;SDS011;9641;51.494;6.670;2023-03-15T04:30:44;4.47;;;4.00;;
19016;SDS011;9641;51.494;6.670;2023-03-15T04:33:51;4.47;;;3.67;;
19016;SDS011;9641;51.494;6.670;2023-03-15T04:36:37;4.13;;;3.60;;
19016;SDS011;9641;51.494;6.670;2023-03-15T04:39:14;5.33;;;4.13;;
19016;SDS011;9641;51.494;6.670;2023-03-15T04:42:15;6.83;;;4.00;;
19016;SDS011;9641;51.494;6.670;2023-03-15T04:45:06;5.40;;;4.43;;
19016;SDS011;9641;51.494;6.670;2023-03-15T04:47:33;6.23;;;4.50;;
19016;SDS011;9641;51.494;6.670;2023-03-15T04:50:21;5.80;;;4.60;;
19016;SDS011;9641;51.494;6.670;2023-03-15T04:52:56;5.83;;;4.93;;
19016;SDS011;9641;51.494;6.670;2023-03-15T04:55:43;5.77;;;5.03;;
19016;SDS011;9641;51.494;6.670;2023-03-15T04:58:37;7.30;;;5.10;;
19016;SDS011;9641;51.494;6.670;2023-03-15T05:01:30;6.23;;;4.60;;
19016;SDS011;9641;51.494;6.670;2023-03-15T05:04:15;6.80;;;4.90;;
19016;SDS011;9641;51.494;6.670;2023-03-15T05:07:02;11.20;;;6.37;;
19016;SDS011;9641;51.494;6.670;2023-03-15T05:09:42;8.80;;;5.70;;
19016;SDS011;9641;51.494;6.670;2023-03-15T05:12:36;10.87;;;7.00;;
19016;SDS011;9641;51.494;6.670;2023-03-15T05:15:37;10.37;;;6.83;;
19016;SDS011;9641;51.494;6.670;2023-03-15T05:18:29;13.27;;;7.50;;
19016;SDS011;9641;51.494;6.670;2023-03-15T05:21:22;13.23;;;7.67;;
19016;SDS011;9641;51.494;6.670;2023-03-15T05:24:15;15.33;;;8.67;;
19016;SDS011;9641;51.494;6.670;2023-03-15T05:26:56;16.23;;;8.97;;
19016;SDS011;9641;51.494;6.670;2023-03-15T05:29:41;14.63;;;9.30;;
19016;SDS011;9641;51.494;6.670;2023-03-15T05:32:42;18.70;;;10.53;;
19016;SDS011;9641;51.494;6.670;2023-03-15T05:35:17;21.37;;;11.37;;
19016;SDS011;9641;51.494;6.670;2023-03-15T05:38:03;17.70;;;10.90;;
19016;SDS011;9641;51.494;6.670;2023-03-15T05:40:42;20.83;;;11.50;;
19016;SDS011;9641;51.494;6.670;2023-03-15T05:43:25;27.23;;;12.20;;
19016;SDS011;9641;51.494;6.670;2023-03-15T05:46:07;21.93;;;12.80;;
19016;SDS011;9641;51.494;6.670;2023-03-15T05:48:54;20.43;;;11.17;;
19016;SDS011;9641;51.494;6.670;2023-03-15T05:51:32;25.63;;;12.87;;
19016;SDS011;9641;51.494;6.670;2023-03-15T05:54:17;24.00;;;13.07;;
19016;SDS011;9641;51.494;6.670;2023-03-15T05:56:44;28.80;;;13.13;;
19016;SDS011;9641;51.494;6.670;2023-03-15T05:59:29;25.30;;;12.77;;
19016;SDS011;9641;51.494;6.670;2023-03-15T06:02:23;23.40;;;12.97;;
19016;SDS011;9641;51.494;6.670;2023-03-15T06:05:08;26.70;;;14.17;;
19016;SDS011;9641;51.494;6.670;2023-03-15T06:07:35;25.13;;;13.00;;
19016;SDS011;9641;51.494;6.670;2023-03-15T06:10:03;27.73;;;13.77;;
19016;SDS011;9641;51.494;6.670;2023-03-15T06:12:30;32.63;;;15.77;;
19016;SDS011;9641;51.494;6.670;2023-03-15T06:14:58;25.20;;;13.40;;
19016;SDS011;9641;51.494;6.670;2023-03-15T06:17:26;29.53;;;14.53;;
19016;SDS011;9641;51.494;6.670;2023-03-15T06:19:53;24.83;;;12.77;;
19016;SDS011;9641;51.494;6.670;2023-03-15T06:22:21;27.73;;;14.20;;
19016;SDS011;9641;51.494;6.670;2023-03-15T06:24:53;27.93;;;13.90;;
19016;SDS011;9641;51.494;6.670;2023-03-15T06:27:21;25.83;;;13.00;;
19016;SDS011;9641;51.494;6.670;2023-03-15T06:29:51;23.13;;;12.37;;
19016;SDS011;9641;51.494;6.670;2023-03-15T06:32:20;26.47;;;12.37;;
19016;SDS011;9641;51.494;6.670;2023-03-15T06:34:48;25.10;;;12.97;;
19016;SDS011;9641;51.494;6.670;2023-03-15T06:37:15;30.80;;;14.43;;
19016;SDS011;9641;51.494;6.670;2023-03-15T06:39:44;25.87;;;12.90;;
19016;SDS011;9641;51.494;6.670;2023-03-15T06:42:11;24.40;;;12.60;;
19016;SDS011;9641;51.494;6.670;2023-03-15T06:44:38;20.97;;;11.97;;
19016;SDS011;9641;51.494;6.670;2023-03-15T06:47:07;25.30;;;11.27;;
19016;SDS011;9641;51.494;6.670;2023-03-15T06:49:36;25.03;;;11.83;;
19016;SDS011;9641;51.494;6.670;2023-03-15T06:52:04;25.73;;;12.37;;
19016;SDS011;9641;51.494;6.670;2023-03-15T06:54:32;20.10;;;11.13;;
19016;SDS011;9641;51.494;6.670;2023-03-15T06:57:00;21.17;;;11.03;;
19016;SDS011;9641;51.494;6.670;2023-03-15T06:59:27;22.43;;;11.47;;
19016;SDS011;9641;51.494;6.670;2023-03-15T07:01:53;22.37;;;12.03;;
19016;SDS011;9641;51.494;6.670;2023-03-15T07:04:20;21.27;;;11.07;;
19016;SDS011;9641;51.494;6.670;2023-03-15T07:06:47;26.67;;;12.40;;
19016;SDS011;9641;51.494;6.670;2023-03-15T07:09:15;22.77;;;11.53;;
19016;SDS011;9641;51.494;6.670;2023-03-15T07:11:41;25.40;;;11.27;;
19016;SDS011;9641;51.494;6.670;2023-03-15T07:14:09;20.37;;;10.90;;
19016;SDS011;9641;51.494;6.670;2023-03-15T07:16:36;23.37;;;12.50;;
19016;SDS011;9641;51.494;6.670;2023-03-15T07:19:03;29.27;;;12.13;;
19016;SDS011;9641;51.494;6.670;2023-03-15T07:21:30;24.50;;;11.70;;
19016;SDS011;9641;51.494;6.670;2023-03-15T07:23:57;24.00;;;12.03;;
19016;SDS011;9641;51.494;6.670;2023-03-15T07:26:24;21.77;;;11.93;;
19016;SDS011;9641;51.494;6.670;2023-03-15T07:28:51;23.97;;;11.50;;
19016;SDS011;9641;51.494;6.670;2023-03-15T07:31:19;24.93;;;11.57;;
19016;SDS011;9641;51.494;6.670;2023-03-15T07:33:46;24.17;;;10.50;;
19016;SDS011;9641;51.494;6.670;2023-03-15T07:36:13;22.97;;;11.13;;
19016;SDS011;9641;51.494;6.670;2023-03-15T07:38:40;23.20;;;12.23;;
19016;SDS011;9641;51.494;6.670;2023-03-15T07:41:07;23.67;;;10.80;;
19016;SDS011;9641;51.494;6.670;2023-03-15T07:43:36;25.90;;;12.07;;
19016;SDS011;9641;51.494;6.670;2023-03-15T07:46:09;24.20;;;11.93;;
19016;SDS011;9641;51.494;6.670;2023-03-15T07:48:37;25.37;;;10.07;;
19016;SDS011;9641;51.494;6.670;2023-03-15T07:51:05;23.37;;;11.70;;
19016;SDS011;9641;51.494;6.670;2023-03-15T07:53:32;23.67;;;11.23;;
19016;SDS011;9641;51.494;6.670;2023-03-15T07:55:58;21.80;;;11.40;;
19016;SDS011;9641;51.494;6.670;2023-03-15T07:58:26;23.47;;;10.70;;
19016;SDS011;9641;51.494;6.670;2023-03-15T08:00:53;22.57;;;11.33;;
19016;SDS011;9641;51.494;6.670;2023-03-15T08:03:21;24.00;;;10.20;;
19016;SDS011;9641;51.494;6.670;2023-03-15T08:05:50;21.73;;;11.50;;
19016;SDS011;9641;51.494;6.670;2023-03-15T08:08:17;23.57;;;10.63;;
19016;SDS011;9641;51.494;6.670;2023-03-15T08:10:44;23.27;;;11.53;;
19016;SDS011;9641;51.494;6.670;2023-03-15T08:13:12;25.37;;;11.13;;
19016;SDS011;9641;51.494;6.670;2023-03-15T08:15:39;23.90;;;10.70;;
19016;SDS011;9641;51.494;6.670;2023-03-15T08:18:06;22.23;;;11.70;;
19016;SDS011;9641;51.494;6.670;2023-03-15T08:20:33;23.30;;;11.90;;
19016;SDS011;9641;51.494;6.670;2023-03-15T08:23:01;29.17;;;12.63;;
19016;SDS011;9641;51.494;6.670;2023-03-15T08:25:28;58.07;;;15.10;;
19016;SDS011;9641;51.494;6.670;2023-03-15T08:27:56;27.07;;;11.23;;
19016;SDS011;9641;51.494;6.670;2023-03-15T08:30:23;19.27;;;10.07;;
19016;SDS011;9641;51.494;6.670;2023-03-15T08:32:50;23.27;;;11.33;;
19016;SDS011;9641;51.494;6.670;2023-03-15T08:35:18;25.50;;;11.30;;
19016;SDS011;9641;51.494;6.670;2023-03-15T08:37:47;20.13;;;10.60;;
19016;SDS011;9641;51.494;6.670;2023-03-15T08:40:18;20.23;;;10.30;;
19016;SDS011;9641;51.494;6.670;2023-03-15T08:42:49;25.43;;;10.80;;
19016;SDS011;9641;51.494;6.670;2023-03-15T08:45:16;18.53;;;9.93;;
19016;SDS011;9641;51.494;6.670;2023-03-15T08:47:44;20.03;;;10.23;;
19016;SDS011;9641;51.494;6.670;2023-03-15T08:50:12;16.43;;;9.37;;
19016;SDS011;9641;51.494;6.670;2023-03-15T08:52:39;21.10;;;10.40;;
19016;SDS011;9641;51.494;6.670;2023-03-15T08:55:07;22.10;;;10.40;;
19016;SDS011;9641;51.494;6.670;2023-03-15T08:57:38;15.50;;;9.87;;
19016;SDS011;9641;51.494;6.670;2023-03-15T09:00:07;19.47;;;8.93;;
19016;SDS011;9641;51.494;6.670;2023-03-15T09:02:39;19.83;;;9.93;;
19016;SDS011;9641;51.494;6.670;2023-03-15T09:05:06;17.70;;;9.23;;
19016;SDS011;9641;51.494;6.670;2023-03-15T09:07:36;16.23;;;9.10;;
19016;SDS011;9641;51.494;6.670;2023-03-15T09:10:04;14.43;;;7.77;;
19016;SDS011;9641;51.494;6.670;2023-03-15T09:12:31;16.23;;;7.60;;
19016;SDS011;9641;51.494;6.670;2023-03-15T09:14:59;20.30;;;8.60;;
19016;SDS011;9641;51.494;6.670;2023-03-15T09:17:26;15.80;;;7.73;;
19016;SDS011;9641;51.494;6.670;2023-03-15T09:19:53;13.80;;;8.13;;
19016;SDS011;9641;51.494;6.670;2023-03-15T09:22:20;13.47;;;8.47;;
19016;SDS011;9641;51.494;6.670;2023-03-15T09:24:47;19.97;;;9.03;;
19016;SDS011;9641;51.494;6.670;2023-03-15T09:27:14;17.23;;;8.17;;
19016;SDS011;9641;51.494;6.670;2023-03-15T09:29:40;12.67;;;7.63;;
19016;SDS011;9641;51.494;6.670;2023-03-15T09:32:09;18.50;;;7.57;;
19016;SDS011;9641;51.494;6.670;2023-03-15T09:34:37;19.07;;;7.43;;
19016;SDS011;9641;51.494;6.670;2023-03-15T09:37:05;12.30;;;7.37;;
19016;SDS011;9641;51.494;6.670;2023-03-15T09:39:33;15.10;;;6.90;;
19016;SDS011;9641;51.494;6.670;2023-03-15T09:42:00;13.03;;;6.90;;
19016;SDS011;9641;51.494;6.670;2023-03-15T09:44:31;11.77;;;6.93;;
19016;SDS011;9641;51.494;6.670;2023-03-15T09:47:08;14.57;;;6.37;;
19016;SDS011;9641;51.494;6.670;2023-03-15T09:49:47;13.53;;;6.93;;
19016;SDS011;9641;51.494;6.670;2023-03-15T09:52:21;14.50;;;7.43;;
19016;SDS011;9641;51.494;6.670;2023-03-15T09:54:55;18.20;;;7.53;;
19016;SDS011;9641;51.494;6.670;2023-03-15T09:57:27;14.27;;;7.27;;
19016;SDS011;9641;51.494;6.670;2023-03-15T10:00:00;16.13;;;6.57;;
19016;SDS011;9641;51.494;6.670;2023-03-15T10:02:35;14.43;;;6.77;;
19016;SDS011;9641;51.494;6.670;2023-03-15T10:05:10;12.60;;;7.27;;
19016;SDS011;9641;51.494;6.670;2023-03-15T10:07:41;17.10;;;6.93;;
19016;SDS011;9641;51.494;6.670;2023-03-15T10:10:13;13.40;;;7.27;;
19016;SDS011;9641;51.494;6.670;2023-03-15T10:12:44;14.00;;;6.33;;
19016;SDS011;9641;51.494;6.670;2023-03-15T10:15:19;8.13;;;5.90;;
19016;SDS011;9641;51.494;6.670;2023-03-15T10:18:02;11.83;;;5.90;;
19016;SDS011;9641;51.494;6.670;2023-03-15T10:20:53;13.73;;;6.43;;
19016;SDS011;9641;51.494;6.670;2023-03-15T10:23:29;16.07;;;5.43;;
19016;SDS011;9641;51.494;6.670;2023-03-15T10:26:03;12.67;;;5.93;;
19016;SDS011;9641;51.494;6.670;2023-03-15T10:28:32;10.43;;;4.93;;
19016;SDS011;9641;51.494;6.670;2023-03-15T10:31:08;10.27;;;4.63;;
19016;SDS011;9641;51.494;6.670;2023-03-15T10:33:39;17.37;;;4.30;;
19016;SDS011;9641;51.494;6.670;2023-03-15T10:36:12;9.03;;;3.90;;
19016;SDS011;9641;51.494;6.670;2023-03-15T10:38:41;11.53;;;4.17;;
19016;SDS011;9641;51.494;6.670;2023-03-15T10:41:10;9.27;;;4.30;;
19016;SDS011;9641;51.494;6.670;2023-03-15T10:43:38;11.80;;;3.93;;
19016;SDS011;9641;51.494;6.670;2023-03-15T10:46:06;9.60;;;4.00;;
19016;SDS011;9641;51.494;6.670;2023-03-15T10:48:36;9.97;;;4.23;;
19016;SDS011;9641;51.494;6.670;2023-03-15T10:51:06;9.33;;;4.63;;
19016;SDS011;9641;51.494;6.670;2023-03-15T10:53:53;7.90;;;4.53;;
19016;SDS011;9641;51.494;6.670;2023-03-15T10:56:23;6.70;;;3.60;;
19016;SDS011;9641;51.494;6.670;2023-03-15T10:58:52;5.87;;;2.50;;
19016;SDS011;9641;51.494;6.670;2023-03-15T11:01:21;5.93;;;2.30;;
19016;SDS011;9641;51.494;6.670;2023-03-15T11:04:11;9.40;;;2.60;;
19016;SDS011;9641;51.494;6.670;2023-03-15T11:06:41;6.00;;;2.00;;
19016;SDS011;9641;51.494;6.670;2023-03-15T11:09:10;4.20;;;2.33;;
19016;SDS011;9641;51.494;6.670;2023-03-15T11:11:49;5.27;;;2.70;;
19016;SDS011;9641;51.494;6.670;2023-03-15T11:14:24;4.80;;;2.17;;
19016;SDS011;9641;51.494;6.670;2023-03-15T11:16:53;4.03;;;2.17;;
19016;SDS011;9641;51.494;6.670;2023-03-15T11:19:24;5.13;;;2.10;;
19016;SDS011;9641;51.494;6.670;2023-03-15T11:21:53;6.50;;;1.90;;
19016;SDS011;9641;51.494;6.670;2023-03-15T11:24:25;4.77;;;2.07;;
19016;SDS011;9641;51.494;6.670;2023-03-15T11:26:53;3.73;;;2.00;;
19016;SDS011;9641;51.494;6.670;2023-03-15T11:29:26;8.73;;;2.00;;
19016;SDS011;9641;51.494;6.670;2023-03-15T11:31:55;5.40;;;2.10;;
19016;SDS011;9641;51.494;6.670;2023-03-15T11:34:36;2.33;;;1.63;;
19016;SDS011;9641;51.494;6.670;2023-03-15T11:37:09;43.60;;;5.73;;
19016;SDS011;9641;51.494;6.670;2023-03-15T11:39:42;6.70;;;1.97;;
19016;SDS011;9641;51.494;6.670;2023-03-15T11:42:13;5.87;;;2.07;;
19016;SDS011;9641;51.494;6.670;2023-03-15T11:44:46;3.93;;;1.60;;
19016;SDS011;9641;51.494;6.670;2023-03-15T11:47:16;2.93;;;1.90;;
19016;SDS011;9641;51.494;6.670;2023-03-15T11:49:53;6.23;;;2.10;;
19016;SDS011;9641;51.494;6.670;2023-03-15T11:52:21;4.13;;;1.90;;
19016;SDS011;9641;51.494;6.670;2023-03-15T11:54:49;2.57;;;1.40;;
19016;SDS011;9641;51.494;6.670;2023-03-15T11:57:42;8.47;;;1.73;;
19016;SDS011;9641;51.494;6.670;2023-03-15T12:00:18;4.83;;;1.90;;
19016;SDS011;9641;51.494;6.670;2023-03-15T12:03:30;5.07;;;2.00;;
19016;SDS011;9641;51.494;6.670;2023-03-15T12:06:05;5.23;;;1.80;;
19016;SDS011;9641;51.494;6.670;2023-03-15T12:08:50;5.50;;;2.17;;
19016;SDS011;9641;51.494;6.670;2023-03-15T12:11:37;3.97;;;1.97;;
19016;SDS011;9641;51.494;6.670;2023-03-15T12:14:19;5.27;;;2.40;;
19016;SDS011;9641;51.494;6.670;2023-03-15T12:16:50;5.90;;;1.87;;
19016;SDS011;9641;51.494;6.670;2023-03-15T12:19:22;6.40;;;1.87;;
19016;SDS011;9641;51.494;6.670;2023-03-15T12:22:00;2.40;;;1.80;;
19016;SDS011;9641;51.494;6.670;2023-03-15T12:24:28;4.47;;;1.87;;
19016;SDS011;9641;51.494;6.670;2023-03-15T12:26:59;6.70;;;1.80;;
19016;SDS011;9641;51.494;6.670;2023-03-15T12:29:28;5.03;;;1.50;;
19016;SDS011;9641;51.494;6.670;2023-03-15T12:31:58;31.37;;;3.97;;
19016;SDS011;9641;51.494;6.670;2023-03-15T12:34:36;8.40;;;1.60;;
19016;SDS011;9641;51.494;6.670;2023-03-15T12:37:13;4.97;;;1.40;;
19016;SDS011;9641;51.494;6.670;2023-03-15T12:39:44;4.40;;;1.57;;
19016;SDS011;9641;51.494;6.670;2023-03-15T12:42:18;7.60;;;1.80;;
19016;SDS011;9641;51.494;6.670;2023-03-15T12:45:30;5.13;;;1.70;;
19016;SDS011;9641;51.494;6.670;2023-03-15T12:48:20;4.73;;;1.40;;
19016;SDS011;9641;51.494;6.670;2023-03-15T12:50:49;3.27;;;1.13;;
19016;SDS011;9641;51.494;6.670;2023-03-15T12:53:24;4.37;;;1.20;;
19016;SDS011;9641;51.494;6.670;2023-03-15T12:56:24;4.10;;;1.20;;
19016;SDS011;9641;51.494;6.670;2023-03-15T12:59:09;4.57;;;1.33;;
19016;SDS011;9641;51.494;6.670;2023-03-15T13:01:42;4.63;;;1.30;;
19016;SDS011;9641;51.494;6.670;2023-03-15T13:04:09;4.33;;;1.50;;
19016;SDS011;9641;51.494;6.670;2023-03-15T13:06:42;3.33;;;1.40;;
19016;SDS011;9641;51.494;6.670;2023-03-15T13:09:22;2.35;;;1.05;;
19016;SDS011;9641;51.494;6.670;2023-03-15T13:12:14;3.50;;;1.10;;
19016;SDS011;9641;51.494;6.670;2023-03-15T13:14:47;5.82;;;1.20;;
19016;SDS011;9641;51.494;6.670;2023-03-15T13:17:27;4.70;;;1.02;;
19016;SDS011;9641;51.494;6.670;2023-03-15T13:20:10;1.48;;;1.23;;
19016;SDS011;9641;51.494;6.670;2023-03-15T13:22:45;4.25;;;1.20;;
19016;SDS011;9641;51.494;6.670;2023-03-15T13:25:22;2.47;;;0.90;;
19016;SDS011;9641;51.494;6.670;2023-03-15T13:27:55;3.70;;;1.07;;
19016;SDS011;9641;51.494;6.670;2023-03-15T13:30:29;4.90;;;1.50;;
19016;SDS011;9641;51.494;6.670;2023-03-15T13:33:10;3.77;;;1.10;;
19016;SDS011;9641;51.494;6.670;2023-03-15T13:35:53;1.90;;;0.88;;
19016;SDS011;9641;51.494;6.670;2023-03-15T13:38:27;3.95;;;1.38;;
19016;SDS011;9641;51.494;6.670;2023-03-15T13:40:57;2.17;;;0.90;;
19016;SDS011;9641;51.494;6.670;2023-03-15T13:43:26;3.17;;;1.23;;
19016;SDS011;9641;51.494;6.670;2023-03-15T13:45:55;3.27;;;1.13;;
19016;SDS011;9641;51.494;6.670;2023-03-15T13:48:25;3.80;;;1.20;;
19016;SDS011;9641;51.494;6.670;2023-03-15T13:50:52;4.77;;;1.00;;
19016;SDS011;9641;51.494;6.670;2023-03-15T13:53:25;3.07;;;0.90;;
19016;SDS011;9641;51.494;6.670;2023-03-15T13:55:52;3.30;;;1.10;;
19016;SDS011;9641;51.494;6.670;2023-03-15T13:58:21;2.90;;;1.50;;
19016;SDS011;9641;51.494;6.670;2023-03-15T14:00:55;2.53;;;1.13;;
19016;SDS011;9641;51.494;6.670;2023-03-15T14:03:24;4.47;;;1.03;;
19016;SDS011;9641;51.494;6.670;2023-03-15T14:05:52;4.20;;;1.40;;
19016;SDS011;9641;51.494;6.670;2023-03-15T14:08:21;2.17;;;1.40;;
19016;SDS011;9641;51.494;6.670;2023-03-15T14:11:00;1.07;;;0.87;;
19016;SDS011;9641;51.494;6.670;2023-03-15T14:13:31;5.17;;;1.13;;
19016;SDS011;9641;51.494;6.670;2023-03-15T14:16:00;3.43;;;1.27;;
19016;SDS011;9641;51.494;6.670;2023-03-15T14:18:31;2.17;;;1.33;;
19016;SDS011;9641;51.494;6.670;2023-03-15T14:20:59;2.85;;;1.10;;
19016;SDS011;9641;51.494;6.670;2023-03-15T14:23:29;3.08;;;1.35;;
19016;SDS011;9641;51.494;6.670;2023-03-15T14:26:00;2.17;;;0.97;;
19016;SDS011;9641;51.494;6.670;2023-03-15T14:28:34;3.70;;;1.20;;
19016;SDS011;9641;51.494;6.670;2023-03-15T14:31:01;2.07;;;1.27;;
19016;SDS011;9641;51.494;6.670;2023-03-15T14:33:30;3.80;;;1.40;;
19016;SDS011;9641;51.494;6.670;2023-03-15T14:35:59;4.20;;;1.10;;
19016;SDS011;9641;51.494;6.670;2023-03-15T14:38:36;2.17;;;0.90;;
19016;SDS011;9641;51.494;6.670;2023-03-15T14:41:18;6.07;;;1.50;;
19016;SDS011;9641;51.494;6.670;2023-03-15T14:43:50;3.40;;;1.30;;
19016;SDS011;9641;51.494;6.670;2023-03-15T14:46:18;5.00;;;1.40;;
19016;SDS011;9641;51.494;6.670;2023-03-15T14:48:45;2.37;;;1.37;;
19016;SDS011;9641;51.494;6.670;2023-03-15T14:51:14;3.60;;;1.33;;
19016;SDS011;9641;51.494;6.670;2023-03-15T14:53:43;3.63;;;1.30;;
19016;SDS011;9641;51.494;6.670;2023-03-15T14:56:11;3.33;;;1.17;;
19016;SDS011;9641;51.494;6.670;2023-03-15T14:58:39;2.70;;;1.40;;
19016;SDS011;9641;51.494;6.670;2023-03-15T15:01:18;2.73;;;1.47;;
19016;SDS011;9641;51.494;6.670;2023-03-15T15:03:48;1.77;;;1.10;;
19016;SDS011;9641;51.494;6.670;2023-03-15T15:06:18;3.03;;;1.17;;
19016;SDS011;9641;51.494;6.670;2023-03-15T15:08:46;2.27;;;1.37;;
19016;SDS011;9641;51.494;6.670;2023-03-15T15:11:16;3.77;;;1.30;;
19016;SDS011;9641;51.494;6.670;2023-03-15T15:13:43;2.53;;;1.30;;
19016;SDS011;9641;51.494;6.670;2023-03-15T15:16:11;5.50;;;1.30;;
19016;SDS011;9641;51.494;6.670;2023-03-15T15:18:38;3.77;;;1.20;;
19016;SDS011;9641;51.494;6.670;2023-03-15T15:21:10;6.37;;;1.27;;
19016;SDS011;9641;51.494;6.670;2023-03-15T15:23:44;4.77;;;1.40;;